createdAt,value
2019-02-27T00:01:21.367Z,6.20
2019-02-27T00:03:51.009Z,6.20
2019-02-27T00:06:20.638Z,6.20
2019-02-27T00:08:50.184Z,6.20
2019-02-27T00:11:19.633Z,6.10
2019-02-27T00:13:49.140Z,6.00
2019-02-27T00:16:18.684Z,5.90
2019-02-27T00:18:48.180Z,5.90
2019-02-27T00:21:17.862Z,5.90
2019-02-27T00:23:47.402Z,5.90
2019-02-27T00:26:16.946Z,5.90
2019-02-27T00:28:46.624Z,5.80
2019-02-27T00:31:16.069Z,5.70
2019-02-27T00:33:45.558Z,5.80
2019-02-27T00:36:15.021Z,5.70
2019-02-27T00:38:44.576Z,5.80
2019-02-27T00:41:14.033Z,5.80
2019-02-27T00:43:43.571Z,5.80
2019-02-27T00:46:14.005Z,5.70
2019-02-27T00:48:43.668Z,5.70
2019-02-27T00:51:13.136Z,5.60
2019-02-27T00:53:42.710Z,5.70
2019-02-27T00:56:12.939Z,5.60
2019-02-27T00:58:42.646Z,5.70
2019-02-27T01:01:12.695Z,5.70
2019-02-27T01:03:42.917Z,5.60
2019-02-27T01:06:14.670Z,5.60
2019-02-27T01:08:44.355Z,5.60
2019-02-27T01:11:18.133Z,5.50
2019-02-27T01:13:45.074Z,5.60
2019-02-27T01:16:16.984Z,5.50
2019-02-27T01:18:45.844Z,5.50
2019-02-27T01:21:19.231Z,5.50
2019-02-27T01:23:46.484Z,5.40
2019-02-27T01:26:15.987Z,5.40
2019-02-27T01:28:45.649Z,5.30
2019-02-27T01:31:15.316Z,5.40
2019-02-27T01:33:44.912Z,5.40
2019-02-27T01:36:14.393Z,5.30
2019-02-27T01:38:43.836Z,5.30
2019-02-27T01:41:13.300Z,5.20
2019-02-27T01:43:42.790Z,5.20
2019-02-27T01:46:12.338Z,5.20
2019-02-27T01:48:43.681Z,5.20
2019-02-27T01:51:13.135Z,5.10
2019-02-27T01:53:42.758Z,5.10
2019-02-27T01:56:12.291Z,5.00
2019-02-27T01:58:44.241Z,5.00
2019-02-27T02:01:12.982Z,5.00
2019-02-27T02:03:47.029Z,5.00
2019-02-27T02:06:13.877Z,5.00
2019-02-27T02:08:47.953Z,4.90
2019-02-27T02:11:14.679Z,4.90
2019-02-27T02:14:20.980Z,4.90
2019-02-27T02:17:33.797Z,4.90
2019-02-27T02:20:27.766Z,4.90
2019-02-27T02:23:15.465Z,4.90
2019-02-27T02:26:36.641Z,4.90
2019-02-27T02:29:30.557Z,4.80
2019-02-27T02:32:17.512Z,4.80
2019-02-27T02:35:15.768Z,4.80
2019-02-27T02:38:13.715Z,4.70
2019-02-27T02:40:59.056Z,4.80
2019-02-27T02:44:09.418Z,4.70
2019-02-27T02:47:10.596Z,4.70
2019-02-27T02:50:08.866Z,4.70
2019-02-27T02:53:04.712Z,4.70
2019-02-27T02:55:47.507Z,4.70
2019-02-27T02:58:47.180Z,4.60
2019-02-27T03:01:17.785Z,4.70
2019-02-27T03:04:13.684Z,4.50
2019-02-27T03:07:44.696Z,4.40
2019-02-27T03:10:25.795Z,4.40
2019-02-27T03:13:41.657Z,4.40
2019-02-27T03:16:14.204Z,4.50
2019-02-27T03:18:49.442Z,4.50
2019-02-27T03:21:47.061Z,4.30
2019-02-27T03:24:42.843Z,4.10
2019-02-27T03:27:29.566Z,4.10
2019-02-27T03:30:19.474Z,4.10
2019-02-27T03:33:30.293Z,4.20
2019-02-27T03:36:29.143Z,4.20
2019-02-27T03:39:36.473Z,4.10
2019-02-27T03:42:50.230Z,4.00
2019-02-27T03:45:56.731Z,4.10
2019-02-27T03:49:07.818Z,4.20
2019-02-27T03:52:28.313Z,4.20
2019-02-27T03:55:32.926Z,4.10
2019-02-27T03:58:31.975Z,4.10
2019-02-27T04:01:20.872Z,4.00
2019-02-27T04:04:03.303Z,4.10
2019-02-27T04:07:19.364Z,4.00
2019-02-27T04:09:54.794Z,3.90
2019-02-27T04:12:20.210Z,3.80
2019-02-27T04:14:49.672Z,3.80
2019-02-27T04:17:27.773Z,3.80
2019-02-27T04:19:57.956Z,3.70
2019-02-27T04:22:27.529Z,3.70
2019-02-27T04:24:57.757Z,3.70
2019-02-27T04:27:27.488Z,3.70
2019-02-27T04:29:57.039Z,3.60
2019-02-27T04:32:26.522Z,3.70
2019-02-27T04:34:56.007Z,3.70
2019-02-27T04:37:25.579Z,3.90
2019-02-27T04:39:55.044Z,3.90
2019-02-27T04:42:25.736Z,3.80
2019-02-27T04:44:55.804Z,3.70
2019-02-27T04:47:28.858Z,3.70
2019-02-27T04:49:56.525Z,3.70
2019-02-27T04:52:26.025Z,3.70
2019-02-27T04:54:55.536Z,3.80
2019-02-27T04:57:25.126Z,3.80
2019-02-27T04:59:54.584Z,3.90
2019-02-27T05:02:24.199Z,3.90
2019-02-27T05:04:53.788Z,3.90
2019-02-27T05:07:23.412Z,3.80
2019-02-27T05:09:52.902Z,3.70
2019-02-27T05:12:22.511Z,3.80
2019-02-27T05:14:52.022Z,3.90
2019-02-27T05:17:22.056Z,3.80
2019-02-27T05:19:52.091Z,3.70
2019-02-27T05:22:26.170Z,3.60
2019-02-27T05:24:52.817Z,3.70
2019-02-27T05:27:22.286Z,3.70
2019-02-27T05:29:51.755Z,3.70
2019-02-27T05:32:21.307Z,3.70
2019-02-27T05:34:50.937Z,3.70
2019-02-27T05:37:20.445Z,3.80
2019-02-27T05:39:51.148Z,3.90
2019-02-27T05:42:21.166Z,3.80
2019-02-27T05:44:55.494Z,3.80
2019-02-27T05:47:21.803Z,3.80
2019-02-27T05:49:51.344Z,3.50
2019-02-27T05:52:20.868Z,3.40
2019-02-27T05:54:50.498Z,3.30
2019-02-27T05:57:21.102Z,3.30
2019-02-27T05:59:51.192Z,3.30
2019-02-27T06:02:20.849Z,3.30
2019-02-27T06:04:50.333Z,3.30
2019-02-27T06:07:19.894Z,3.40
2019-02-27T06:09:49.465Z,3.50
2019-02-27T06:12:19.017Z,3.50
2019-02-27T06:14:48.491Z,3.50
2019-02-27T06:17:18.003Z,3.50
2019-02-27T06:19:47.617Z,3.50
2019-02-27T06:22:17.196Z,3.30
2019-02-27T06:24:46.695Z,3.10
2019-02-27T06:27:16.168Z,3.10
2019-02-27T06:29:45.751Z,3.10
2019-02-27T06:32:16.451Z,3.20
2019-02-27T06:34:45.984Z,3.20
2019-02-27T06:37:16.080Z,3.10
2019-02-27T06:39:45.797Z,3.00
2019-02-27T06:42:15.385Z,3.10
2019-02-27T06:44:45.062Z,3.10
2019-02-27T06:47:14.580Z,3.10
2019-02-27T06:49:44.047Z,3.20
2019-02-27T06:52:13.564Z,3.20
2019-02-27T06:54:43.031Z,3.30
2019-02-27T06:57:12.528Z,3.30
2019-02-27T06:59:42.136Z,3.20
2019-02-27T07:02:11.619Z,3.30
2019-02-27T07:04:41.101Z,3.20
2019-02-27T07:07:10.672Z,3.20
2019-02-27T07:09:40.332Z,3.20
2019-02-27T07:12:09.862Z,3.20
2019-02-27T07:14:39.948Z,3.20
2019-02-27T07:17:09.656Z,3.20
2019-02-27T07:19:39.355Z,3.20
2019-02-27T07:22:12.369Z,3.20
2019-02-27T07:24:40.171Z,3.20
2019-02-27T07:27:09.680Z,3.30
2019-02-27T07:29:39.466Z,3.30
2019-02-27T07:32:08.955Z,3.30
2019-02-27T07:34:38.440Z,3.30
2019-02-27T07:37:10.438Z,3.40
2019-02-27T07:39:39.149Z,3.50
2019-02-27T07:42:08.777Z,3.50
2019-02-27T07:44:38.263Z,3.60
2019-02-27T07:47:07.713Z,3.60
2019-02-27T07:49:37.305Z,3.70
2019-02-27T07:52:06.765Z,3.80
2019-02-27T07:54:36.342Z,3.80
2019-02-27T07:57:05.807Z,3.90
2019-02-27T07:59:37.976Z,4.00
2019-02-27T08:02:06.496Z,4.10
2019-02-27T08:04:36.039Z,4.10
2019-02-27T08:07:05.599Z,4.10
2019-02-27T08:09:35.199Z,4.20
2019-02-27T08:12:04.714Z,4.20
2019-02-27T08:14:36.792Z,4.20
2019-02-27T08:17:16.994Z,4.30
2019-02-27T08:19:36.922Z,4.30
2019-02-27T08:22:06.450Z,4.30
2019-02-27T08:24:35.958Z,4.30
2019-02-27T08:27:07.120Z,4.50
2019-02-27T08:29:55.880Z,4.60
2019-02-27T08:32:25.392Z,4.70
2019-02-27T08:35:01.196Z,4.70
2019-02-27T08:37:30.718Z,4.70
2019-02-27T08:40:05.464Z,4.80
2019-02-27T08:42:40.529Z,4.90
2019-02-27T08:45:19.647Z,5.00
2019-02-27T08:47:49.207Z,5.10
2019-02-27T08:50:20.757Z,5.20
2019-02-27T08:52:54.084Z,5.30
2019-02-27T08:55:27.675Z,5.30
2019-02-27T08:58:00.840Z,5.40
2019-02-27T09:00:32.728Z,5.50
2019-02-27T09:03:05.203Z,5.60
2019-02-27T09:05:39.003Z,5.60
2019-02-27T09:08:12.918Z,5.80
2019-02-27T09:10:46.255Z,5.80
2019-02-27T09:13:19.314Z,5.90
2019-02-27T09:15:51.981Z,6.10
2019-02-27T09:18:24.385Z,6.20
2019-02-27T09:20:56.053Z,6.20
2019-02-27T09:23:29.607Z,6.30
2019-02-27T09:26:03.486Z,6.40
2019-02-27T09:28:35.880Z,6.40
2019-02-27T09:31:09.128Z,6.50
2019-02-27T09:33:41.031Z,6.60
2019-02-27T09:36:16.274Z,6.70
2019-02-27T09:38:48.867Z,6.80
2019-02-27T09:41:23.781Z,6.80
2019-02-27T09:43:58.596Z,6.90
2019-02-27T09:46:27.607Z,7.10
2019-02-27T09:48:57.099Z,7.10
2019-02-27T09:51:26.850Z,7.30
2019-02-27T09:53:56.377Z,7.40
2019-02-27T09:56:28.981Z,7.50
2019-02-27T09:58:57.169Z,7.70
2019-02-27T10:01:26.810Z,7.80
2019-02-27T10:03:56.378Z,7.80
2019-02-27T10:06:25.988Z,7.90
2019-02-27T10:08:56.471Z,8.10
2019-02-27T10:11:26.749Z,8.10
2019-02-27T10:13:56.260Z,8.20
2019-02-27T10:16:26.108Z,8.30
2019-02-27T10:18:55.902Z,8.40
2019-02-27T10:21:25.436Z,8.60
2019-02-27T10:23:56.412Z,8.60
2019-02-27T10:26:25.895Z,8.70
2019-02-27T10:28:55.432Z,8.80
2019-02-27T10:31:25.893Z,8.80
2019-02-27T10:33:56.348Z,9.20
2019-02-27T10:36:25.860Z,9.30
2019-02-27T10:38:55.348Z,9.40
2019-02-27T10:41:24.910Z,9.60
2019-02-27T10:43:56.602Z,9.80
2019-02-27T10:46:26.101Z,10.00
2019-02-27T10:48:55.577Z,10.20
2019-02-27T10:51:25.084Z,10.30
2019-02-27T10:53:54.528Z,10.40
2019-02-27T10:56:24.221Z,10.70
2019-02-27T10:58:54.804Z,10.90
2019-02-27T11:01:24.308Z,11.10
2019-02-27T11:03:54.638Z,11.30
2019-02-27T11:06:33.525Z,11.60
2019-02-27T11:08:55.384Z,11.90
2019-02-27T11:11:24.983Z,12.10
2019-02-27T11:13:55.406Z,12.10
2019-02-27T11:16:25.175Z,12.40
2019-02-27T11:18:54.793Z,12.50
2019-02-27T11:21:24.327Z,12.50
2019-02-27T11:23:53.915Z,13.00
2019-02-27T11:26:23.521Z,13.40
2019-02-27T11:28:53.015Z,13.70
2019-02-27T11:31:22.719Z,14.10
2019-02-27T11:33:52.238Z,14.50
2019-02-27T11:36:21.776Z,14.60
2019-02-27T11:38:51.267Z,14.80
2019-02-27T11:41:20.968Z,14.90
2019-02-27T11:43:52.667Z,14.60
2019-02-27T11:46:21.937Z,14.80
2019-02-27T11:48:51.545Z,14.80
2019-02-27T11:51:21.173Z,14.40
2019-02-27T11:53:50.639Z,13.80
2019-02-27T11:56:20.861Z,13.40
2019-02-27T11:58:50.378Z,13.00
2019-02-27T12:01:22.119Z,12.70
2019-02-27T12:03:51.280Z,12.50
2019-02-27T12:06:20.816Z,12.40
2019-02-27T12:08:50.350Z,12.30
2019-02-27T12:11:21.214Z,12.20
2019-02-27T12:13:50.708Z,12.10
2019-02-27T12:16:20.226Z,12.00
2019-02-27T12:18:49.800Z,12.00
2019-02-27T12:21:19.343Z,11.90
2019-02-27T12:23:48.908Z,12.00
2019-02-27T12:26:18.437Z,11.90
2019-02-27T12:28:52.505Z,12.00
2019-02-27T12:31:19.136Z,12.00
2019-02-27T12:33:48.643Z,12.10
2019-02-27T12:36:19.388Z,12.10
2019-02-27T12:38:49.058Z,12.20
2019-02-27T12:41:18.677Z,12.00
2019-02-27T12:43:52.187Z,12.10
2019-02-27T12:46:19.515Z,12.10
2019-02-27T12:48:48.994Z,12.10
2019-02-27T12:51:18.507Z,12.10
2019-02-27T12:53:48.196Z,12.10
2019-02-27T12:56:17.707Z,12.10
2019-02-27T12:58:47.205Z,12.10
2019-02-27T13:01:17.005Z,12.00
2019-02-27T13:03:46.613Z,12.00
2019-02-27T13:06:16.162Z,12.00
2019-02-27T13:08:45.820Z,12.10
2019-02-27T13:11:15.413Z,12.20
2019-02-27T13:13:45.043Z,12.40
2019-02-27T13:16:15.078Z,12.30
2019-02-27T13:18:46.479Z,12.30
2019-02-27T13:21:20.149Z,12.30
2019-02-27T13:23:46.963Z,12.40
2019-02-27T13:26:16.539Z,12.50
2019-02-27T13:28:48.797Z,12.40
2019-02-27T13:31:17.445Z,12.50
2019-02-27T13:33:47.098Z,12.50
2019-02-27T13:36:16.633Z,12.40
2019-02-27T13:38:46.209Z,12.50
2019-02-27T13:41:15.846Z,12.70
2019-02-27T13:43:45.447Z,12.70
2019-02-27T13:46:15.142Z,12.70
2019-02-27T13:48:44.645Z,12.60
2019-02-27T13:51:14.311Z,12.70
2019-02-27T13:53:44.837Z,13.00
2019-02-27T13:56:16.094Z,13.10
2019-02-27T13:58:45.716Z,13.00
2019-02-27T14:01:15.203Z,12.80
2019-02-27T14:03:45.670Z,12.70
2019-02-27T14:06:16.118Z,12.80
2019-02-27T14:08:45.675Z,12.80
2019-02-27T14:11:15.460Z,12.80
2019-02-27T14:13:45.238Z,12.80
2019-02-27T14:16:14.790Z,12.90
2019-02-27T14:18:44.358Z,12.90
2019-02-27T14:21:14.957Z,12.80
2019-02-27T14:23:46.825Z,12.80
2019-02-27T14:26:16.054Z,12.70
2019-02-27T14:28:45.553Z,12.70
2019-02-27T14:31:15.113Z,12.80
2019-02-27T14:33:44.613Z,12.80
2019-02-27T14:36:14.150Z,12.70
2019-02-27T14:38:43.639Z,12.70
2019-02-27T14:41:14.493Z,12.80
2019-02-27T14:43:44.476Z,13.00
2019-02-27T14:46:14.013Z,12.90
2019-02-27T14:48:43.553Z,12.90
2019-02-27T14:51:13.398Z,13.00
2019-02-27T14:53:43.047Z,12.90
2019-02-27T14:56:12.699Z,12.90
2019-02-27T14:58:42.372Z,12.80
2019-02-27T15:01:14.467Z,12.90
2019-02-27T15:03:43.150Z,12.90
2019-02-27T15:06:12.665Z,12.80
2019-02-27T15:08:42.182Z,12.80
2019-02-27T15:11:14.043Z,12.90
2019-02-27T15:13:43.082Z,12.90
2019-02-27T15:16:15.407Z,12.90
2019-02-27T15:18:43.899Z,12.90
2019-02-27T15:21:13.817Z,12.90
2019-02-27T15:23:43.536Z,12.90
2019-02-27T15:26:16.338Z,12.90
2019-02-27T15:28:44.420Z,12.90
2019-02-27T15:31:13.942Z,12.90
2019-02-27T15:33:43.595Z,12.90
2019-02-27T15:36:13.327Z,13.00
2019-02-27T15:38:45.677Z,13.00
2019-02-27T15:41:14.118Z,13.00
2019-02-27T15:43:43.723Z,12.90
2019-02-27T15:46:13.436Z,12.90
2019-02-27T15:48:42.998Z,12.80
2019-02-27T15:51:12.589Z,12.70
2019-02-27T15:53:42.196Z,12.70
2019-02-27T15:56:11.835Z,12.60
2019-02-27T15:58:41.399Z,12.70
2019-02-27T16:01:11.001Z,12.60
2019-02-27T16:03:42.046Z,12.60
2019-02-27T16:06:11.784Z,12.60
2019-02-27T16:08:41.325Z,12.50
2019-02-27T16:11:10.863Z,12.50
2019-02-27T16:13:40.405Z,12.60
2019-02-27T16:16:10.047Z,12.50
2019-02-27T16:18:41.133Z,12.50
2019-02-27T16:21:12.138Z,12.50
2019-02-27T16:23:41.840Z,12.40
2019-02-27T16:26:11.484Z,12.30
2019-02-27T16:28:41.127Z,12.30
2019-02-27T16:31:13.681Z,12.20
2019-02-27T16:33:43.340Z,12.20
2019-02-27T16:36:15.435Z,12.10
2019-02-27T16:38:43.977Z,12.10
2019-02-27T16:41:13.605Z,12.00
2019-02-27T16:43:47.654Z,12.00
2019-02-27T16:46:14.393Z,11.90
2019-02-27T16:48:44.012Z,11.90
2019-02-27T16:51:13.680Z,11.90
2019-02-27T16:53:43.194Z,11.90
2019-02-27T16:56:12.979Z,11.80
2019-02-27T16:58:42.565Z,11.80
2019-02-27T17:01:12.593Z,11.70
2019-02-27T17:03:42.117Z,11.70
2019-02-27T17:06:14.131Z,11.70
2019-02-27T17:08:42.914Z,11.60
2019-02-27T17:11:12.463Z,11.60
2019-02-27T17:13:41.953Z,11.60
2019-02-27T17:16:11.557Z,11.50
2019-02-27T17:18:42.159Z,11.50
2019-02-27T17:21:11.745Z,11.40
2019-02-27T17:23:44.443Z,11.40
2019-02-27T17:26:12.493Z,11.40
2019-02-27T17:28:42.020Z,11.30
2019-02-27T17:31:12.314Z,11.30
2019-02-27T17:33:42.496Z,11.20
2019-02-27T17:36:11.992Z,11.20
2019-02-27T17:38:41.600Z,11.10
2019-02-27T17:41:11.191Z,11.10
2019-02-27T17:43:40.964Z,11.10
2019-02-27T17:46:10.479Z,11.00
2019-02-27T17:48:40.082Z,11.00
2019-02-27T17:51:09.645Z,10.90
2019-02-27T17:53:39.140Z,10.90
2019-02-27T17:56:28.084Z,10.90
2019-02-27T17:58:57.594Z,10.80
2019-02-27T18:01:27.231Z,10.70
2019-02-27T18:03:56.852Z,10.70
2019-02-27T18:06:31.163Z,10.80
2019-02-27T18:09:00.822Z,10.70
2019-02-27T18:11:31.688Z,10.70
2019-02-27T18:14:01.231Z,10.70
2019-02-27T18:16:30.821Z,10.60
2019-02-27T18:19:00.332Z,10.60
2019-02-27T18:21:33.187Z,10.50
2019-02-27T18:24:01.215Z,10.50
2019-02-27T18:26:30.951Z,10.50
2019-02-27T18:29:00.571Z,10.40
2019-02-27T18:31:30.176Z,10.40
2019-02-27T18:33:59.708Z,10.40
2019-02-27T18:36:29.268Z,10.40
2019-02-27T18:39:01.681Z,10.40
2019-02-27T18:41:30.254Z,10.40
2019-02-27T18:44:01.200Z,10.40
2019-02-27T18:46:31.032Z,10.40
2019-02-27T18:49:00.721Z,10.40
2019-02-27T18:51:33.216Z,10.40
2019-02-27T18:54:02.337Z,10.40
2019-02-27T18:56:34.125Z,10.40
2019-02-27T18:59:04.213Z,10.50
2019-02-27T19:01:33.808Z,10.50
2019-02-27T19:04:03.385Z,10.50
2019-02-27T19:06:33.121Z,10.50
2019-02-27T19:09:02.766Z,10.50
2019-02-27T19:11:43.889Z,10.50
2019-02-27T19:14:13.490Z,10.60
2019-02-27T19:16:43.039Z,10.60
2019-02-27T19:19:13.780Z,10.60
2019-02-27T19:21:44.064Z,10.60
2019-02-27T19:24:13.678Z,10.60
2019-02-27T19:26:44.336Z,10.70
2019-02-27T19:29:14.694Z,10.60
2019-02-27T19:31:44.457Z,10.60
2019-02-27T19:34:13.997Z,10.60
2019-02-27T19:36:43.667Z,10.60
2019-02-27T19:39:13.449Z,10.60
2019-02-27T19:41:43.200Z,10.60
2019-02-27T19:44:12.781Z,10.50
2019-02-27T19:46:46.368Z,10.50
2019-02-27T19:49:13.558Z,10.50
2019-02-27T19:51:45.016Z,10.50
2019-02-27T19:54:15.204Z,10.50
2019-02-27T19:56:45.865Z,10.40
2019-02-27T19:59:15.466Z,10.40
2019-02-27T20:01:49.061Z,10.40
2019-02-27T20:04:16.236Z,10.40
2019-02-27T20:06:45.797Z,10.40
2019-02-27T20:09:19.104Z,10.40
2019-02-27T20:11:47.228Z,10.40
2019-02-27T20:14:16.736Z,10.40
2019-02-27T20:16:46.326Z,10.40
2019-02-27T20:19:22.197Z,10.40
2019-02-27T20:21:47.403Z,10.40
2019-02-27T20:24:17.065Z,10.40
2019-02-27T20:26:46.615Z,10.30
2019-02-27T20:29:16.219Z,10.30
2019-02-27T20:31:45.949Z,10.20
2019-02-27T20:34:15.435Z,10.30
2019-02-27T20:36:44.947Z,10.20
2019-02-27T20:39:15.074Z,10.20
2019-02-27T20:41:44.537Z,10.20
2019-02-27T20:44:14.027Z,10.20
2019-02-27T20:46:46.335Z,10.10
2019-02-27T20:49:14.807Z,10.20
2019-02-27T20:51:44.374Z,10.10
2019-02-27T20:54:13.949Z,10.20
2019-02-27T20:56:43.579Z,10.10
2019-02-27T20:59:13.207Z,10.10
2019-02-27T21:01:46.843Z,10.10
2019-02-27T21:04:14.025Z,10.00
2019-02-27T21:06:47.255Z,10.00
2019-02-27T21:09:15.208Z,10.00
2019-02-27T21:11:44.871Z,10.00
2019-02-27T21:14:14.341Z,10.00
2019-02-27T21:16:45.714Z,10.00
2019-02-27T21:19:15.249Z,9.90
2019-02-27T21:21:47.789Z,9.90
2019-02-27T21:24:17.329Z,9.90
2019-02-27T21:26:46.946Z,9.90
2019-02-27T21:29:16.501Z,9.80
2019-02-27T21:31:46.097Z,9.80
2019-02-27T21:34:19.216Z,9.80
2019-02-27T21:36:46.989Z,9.80
2019-02-27T21:39:16.646Z,9.80
2019-02-27T21:41:46.289Z,9.70
2019-02-27T21:44:25.218Z,9.70
2019-02-27T21:46:47.486Z,9.70
2019-02-27T21:49:17.171Z,9.60
2019-02-27T21:51:48.256Z,9.60
2019-02-27T21:54:18.181Z,9.70
2019-02-27T21:56:49.109Z,9.60
2019-02-27T21:59:18.932Z,9.60
2019-02-27T22:01:49.043Z,9.60
2019-02-27T22:04:18.596Z,9.60
2019-02-27T22:06:48.151Z,9.60
2019-02-27T22:09:17.826Z,9.60
2019-02-27T22:11:47.390Z,9.60
2019-02-27T22:14:17.706Z,9.60
2019-02-27T22:16:47.489Z,9.50
2019-02-27T22:19:18.994Z,9.50
2019-02-27T22:21:48.187Z,9.50
2019-02-27T22:24:20.525Z,9.40
2019-02-27T22:26:48.885Z,9.40
2019-02-27T22:29:18.366Z,9.40
2019-02-27T22:31:47.824Z,9.30
2019-02-27T22:34:17.342Z,9.30
2019-02-27T22:36:46.871Z,9.30
2019-02-27T22:39:16.339Z,9.30
2019-02-27T22:41:45.822Z,9.20
2019-02-27T22:44:15.390Z,9.20
2019-02-27T22:46:47.775Z,9.20
2019-02-27T22:49:16.071Z,9.20
2019-02-27T22:51:48.230Z,9.20
2019-02-27T22:54:16.799Z,9.20
2019-02-27T22:56:50.000Z,9.20
2019-02-27T22:59:17.525Z,9.10
2019-02-27T23:01:52.937Z,9.10
2019-02-27T23:04:22.903Z,9.10
2019-02-27T23:06:52.371Z,9.10
2019-02-27T23:09:21.835Z,9.10
2019-02-27T23:11:51.307Z,9.10
2019-02-27T23:14:21.786Z,9.10
2019-02-27T23:16:51.533Z,9.00
2019-02-27T23:19:21.231Z,9.00
2019-02-27T23:21:50.760Z,9.10
2019-02-27T23:24:20.289Z,9.00
2019-02-27T23:26:54.327Z,9.00
2019-02-27T23:29:20.920Z,9.00
2019-02-27T23:31:50.571Z,9.00
2019-02-27T23:34:20.028Z,9.00
2019-02-27T23:36:49.539Z,9.00
2019-02-27T23:39:19.155Z,9.00
2019-02-27T23:41:48.635Z,9.00
2019-02-27T23:44:18.243Z,8.90
2019-02-27T23:46:51.303Z,8.90
2019-02-27T23:49:18.969Z,8.80
2019-02-27T23:51:48.573Z,8.90
2019-02-27T23:54:18.188Z,8.80
2019-02-27T23:56:47.648Z,8.80
2019-02-27T23:59:17.116Z,8.80
